createdAt,value
2023-01-28T00:03:42.903Z,4.00
2023-01-28T00:08:44.925Z,4.20
2023-01-28T00:13:46.729Z,4.00
2023-01-28T00:18:48.809Z,4.00
2023-01-28T00:23:55.709Z,3.80
2023-01-28T00:28:57.443Z,4.00
2023-01-28T00:33:59.361Z,4.00
2023-01-28T00:39:01.215Z,4.00
2023-01-28T00:44:03.144Z,3.90
2023-01-28T00:49:04.941Z,3.90
2023-01-28T00:54:06.795Z,3.90
2023-01-28T00:59:08.572Z,3.90
2023-01-28T01:04:10.660Z,3.90
2023-01-28T01:09:12.950Z,3.90
2023-01-28T01:14:14.724Z,3.90
2023-01-28T01:19:16.527Z,3.90
2023-01-28T01:24:18.391Z,3.90
2023-01-28T01:29:20.179Z,3.80
2023-01-28T01:34:22.447Z,3.70
2023-01-28T01:39:24.204Z,3.80
2023-01-28T01:45:00.278Z,3.80
2023-01-28T01:50:09.853Z,3.80
2023-01-28T01:55:17.162Z,3.80
2023-01-28T02:00:19.586Z,3.70
2023-01-28T02:05:23.063Z,3.80
2023-01-28T02:10:25.530Z,3.70
2023-01-28T02:15:29.776Z,3.70
2023-01-28T02:20:50.475Z,3.70
2023-01-28T02:25:52.138Z,3.70
2023-01-28T02:31:09.326Z,3.80
2023-01-28T02:36:37.071Z,3.80
2023-01-28T02:41:49.726Z,3.80
2023-01-28T02:47:12.941Z,3.70
2023-01-28T02:52:46.283Z,3.70
2023-01-28T02:57:51.030Z,3.70
2023-01-28T03:03:05.506Z,3.80
2023-01-28T03:08:27.641Z,3.70
2023-01-28T03:13:48.073Z,3.60
2023-01-28T03:19:10.273Z,3.60
2023-01-28T03:24:32.864Z,3.50
2023-01-28T03:29:55.325Z,3.50
2023-01-28T03:35:16.212Z,3.50
2023-01-28T03:40:18.944Z,3.60
2023-01-28T03:45:21.562Z,3.50
2023-01-28T03:50:23.330Z,3.60
2023-01-28T03:55:25.901Z,3.50
2023-01-28T04:00:27.711Z,3.50
2023-01-28T04:05:29.561Z,3.60
2023-01-28T04:10:31.386Z,3.40
2023-01-28T04:15:33.762Z,3.40
2023-01-28T04:20:36.123Z,3.40
2023-01-28T04:25:37.891Z,3.40
2023-01-28T04:30:39.720Z,3.30
2023-01-28T04:35:41.664Z,3.30
2023-01-28T04:40:43.505Z,3.30
2023-01-28T04:45:45.824Z,3.30
2023-01-28T04:50:47.765Z,3.30
2023-01-28T04:55:49.691Z,3.30
2023-01-28T05:00:59.161Z,3.30
2023-01-28T05:06:01.228Z,3.40
2023-01-28T05:11:03.229Z,3.40
2023-01-28T05:16:05.555Z,3.30
2023-01-28T05:21:07.798Z,3.40
2023-01-28T05:26:10.147Z,3.40
2023-01-28T05:31:12.176Z,3.20
2023-01-28T05:36:13.974Z,3.30
2023-01-28T05:41:16.046Z,3.20
2023-01-28T05:46:17.809Z,3.30
2023-01-28T05:51:19.600Z,3.20
2023-01-28T05:56:21.357Z,3.40
2023-01-28T06:01:23.152Z,3.40
2023-01-28T06:06:25.195Z,3.20
2023-01-28T06:11:27.563Z,3.20
2023-01-28T06:16:29.503Z,3.30
2023-01-28T06:21:31.261Z,3.30
2023-01-28T06:26:33.303Z,3.10
2023-01-28T06:31:35.105Z,3.20
2023-01-28T06:36:38.166Z,3.20
2023-01-28T06:41:40.020Z,3.20
2023-01-28T06:46:42.350Z,3.10
2023-01-28T06:51:44.147Z,3.10
2023-01-28T06:56:45.980Z,3.20
2023-01-28T07:01:47.788Z,3.00
2023-01-28T07:06:49.633Z,3.00
2023-01-28T07:11:51.757Z,2.90
2023-01-28T07:16:53.906Z,3.00
2023-01-28T07:21:58.292Z,2.90
2023-01-28T07:27:00.421Z,2.90
2023-01-28T07:32:02.444Z,2.90
2023-01-28T07:37:04.302Z,3.00
2023-01-28T07:42:06.876Z,2.80
2023-01-28T07:47:08.691Z,2.80
2023-01-28T07:52:10.657Z,2.90
2023-01-28T07:57:12.474Z,2.80
2023-01-28T08:02:14.855Z,2.90
2023-01-28T08:07:16.633Z,2.80
2023-01-28T08:12:18.406Z,2.80
2023-01-28T08:17:20.430Z,2.80
2023-01-28T08:22:25.931Z,2.80
2023-01-28T08:27:27.755Z,2.80
2023-01-28T08:32:31.007Z,2.90
2023-01-28T08:37:32.815Z,2.90
2023-01-28T08:42:34.614Z,2.90
2023-01-28T08:47:36.376Z,3.10
2023-01-28T08:52:38.198Z,2.80
2023-01-28T08:57:40.060Z,2.90
2023-01-28T09:02:41.984Z,3.00
2023-01-28T09:07:43.775Z,3.00
2023-01-28T09:12:45.582Z,3.00
2023-01-28T09:17:47.359Z,3.00
2023-01-28T09:22:49.122Z,3.00
2023-01-28T09:27:51.133Z,3.00
2023-01-28T09:32:54.429Z,3.10
2023-01-28T09:38:00.458Z,2.90
2023-01-28T09:43:36.154Z,3.00
2023-01-28T09:48:43.104Z,3.00
2023-01-28T09:53:50.003Z,3.10
2023-01-28T09:58:52.337Z,3.20
2023-01-28T10:04:24.675Z,3.10
2023-01-28T10:09:44.675Z,3.10
2023-01-28T10:14:46.716Z,3.30
2023-01-28T10:20:07.627Z,3.30
2023-01-28T10:25:22.436Z,3.20
2023-01-28T10:30:27.083Z,3.10
2023-01-28T10:35:33.171Z,3.30
2023-01-28T10:40:35.815Z,3.30
2023-01-28T10:46:07.886Z,3.10
2023-01-28T10:51:09.830Z,3.30
2023-01-28T10:56:38.006Z,4.70
2023-01-28T11:01:52.105Z,4.50
2023-01-28T11:07:03.229Z,3.70
2023-01-28T11:12:34.749Z,3.70
2023-01-28T11:17:39.266Z,3.30
2023-01-28T11:22:45.443Z,3.50
2023-01-28T11:27:49.607Z,3.50
2023-01-28T11:33:00.140Z,3.30
2023-01-28T11:38:02.362Z,3.50
2023-01-28T11:43:08.770Z,3.30
2023-01-28T11:48:34.171Z,3.40
2023-01-28T11:53:52.150Z,3.30
2023-01-28T11:58:59.711Z,3.40
2023-01-28T12:04:28.962Z,3.50
2023-01-28T12:09:39.899Z,3.60
2023-01-28T12:15:06.920Z,3.60
2023-01-28T12:20:15.242Z,3.60
2023-01-28T12:25:43.393Z,3.60
2023-01-28T12:30:45.220Z,3.80
2023-01-28T12:35:53.718Z,3.70
2023-01-28T12:41:08.732Z,3.80
2023-01-28T12:46:30.923Z,3.90
2023-01-28T12:52:00.122Z,4.00
2023-01-28T12:57:03.057Z,4.30
2023-01-28T13:02:13.860Z,4.50
2023-01-28T13:07:30.594Z,4.50
2023-01-28T13:12:34.078Z,4.50
2023-01-28T13:17:35.860Z,4.60
2023-01-28T13:22:37.721Z,4.40
2023-01-28T13:27:39.450Z,4.20
2023-01-28T13:32:41.274Z,4.00
2023-01-28T13:37:47.051Z,4.30
2023-01-28T13:42:59.110Z,4.90
2023-01-28T13:48:32.915Z,4.70
2023-01-28T13:53:56.372Z,5.40
2023-01-28T13:59:25.913Z,5.90
2023-01-28T14:04:58.118Z,5.80
2023-01-28T14:10:33.469Z,5.30
2023-01-28T14:15:59.862Z,5.00
2023-01-28T14:21:08.611Z,4.70
2023-01-28T14:26:32.861Z,4.60
2023-01-28T14:31:39.501Z,5.70
2023-01-28T14:36:44.344Z,6.20
2023-01-28T14:41:49.080Z,6.20
2023-01-28T14:46:57.477Z,6.60
2023-01-28T14:52:02.239Z,6.80
2023-01-28T14:57:17.849Z,7.90
2023-01-28T15:02:25.619Z,9.50
2023-01-28T15:07:28.259Z,7.60
2023-01-28T15:12:33.211Z,6.80
2023-01-28T15:17:35.151Z,6.30
2023-01-28T15:22:38.772Z,5.50
2023-01-28T15:27:42.357Z,6.90
2023-01-28T15:32:44.120Z,5.80
2023-01-28T15:37:45.967Z,4.90
2023-01-28T15:42:49.088Z,4.60
2023-01-28T15:47:52.301Z,4.40
2023-01-28T15:52:55.681Z,4.30
2023-01-28T15:57:57.644Z,4.10
2023-01-28T16:03:08.780Z,4.00
2023-01-28T16:08:28.205Z,3.90
2023-01-28T16:13:33.547Z,3.70
2023-01-28T16:18:53.142Z,3.70
2023-01-28T16:24:06.586Z,3.60
2023-01-28T16:29:17.147Z,3.70
2023-01-28T16:34:18.981Z,3.70
2023-01-28T16:39:20.771Z,3.60
2023-01-28T16:44:22.660Z,3.50
2023-01-28T16:49:24.756Z,3.50
2023-01-28T16:54:27.009Z,3.60
2023-01-28T16:59:28.764Z,3.50
2023-01-28T17:04:30.758Z,3.40
2023-01-28T17:09:32.922Z,3.40
2023-01-28T17:14:34.773Z,3.30
2023-01-28T17:19:36.549Z,3.20
2023-01-28T17:24:38.592Z,3.30
2023-01-28T17:29:40.550Z,3.30
2023-01-28T17:34:42.424Z,3.20
2023-01-28T17:39:44.313Z,3.10
2023-01-28T17:44:46.096Z,3.10
2023-01-28T17:49:48.598Z,2.90
2023-01-28T17:54:50.359Z,2.60
2023-01-28T17:59:52.364Z,2.40
2023-01-28T18:04:54.213Z,2.30
2023-01-28T18:09:56.027Z,2.20
2023-01-28T18:14:57.838Z,2.10
2023-01-28T18:19:59.668Z,2.10
2023-01-28T18:25:01.589Z,1.90
2023-01-28T18:30:03.734Z,1.70
2023-01-28T18:35:06.700Z,1.70
2023-01-28T18:40:09.279Z,1.70
2023-01-28T18:45:11.647Z,1.60
2023-01-28T18:50:16.515Z,1.50
2023-01-28T18:55:19.375Z,1.40
2023-01-28T19:00:21.399Z,1.40
2023-01-28T19:05:23.918Z,1.30
2023-01-28T19:10:25.731Z,1.30
2023-01-28T19:15:27.746Z,1.00
2023-01-28T19:20:29.937Z,1.00
2023-01-28T19:25:31.861Z,1.00
2023-01-28T19:30:37.829Z,1.00
2023-01-28T19:35:39.615Z,0.90
2023-01-28T19:40:42.645Z,0.60
2023-01-28T19:45:44.783Z,0.80
2023-01-28T19:50:46.701Z,0.90
2023-01-28T19:55:50.690Z,0.80
2023-01-28T20:00:53.847Z,0.70
2023-01-28T20:06:00.442Z,0.60
2023-01-28T20:11:06.337Z,0.60
2023-01-28T20:16:11.649Z,0.50
2023-01-28T20:21:13.413Z,0.40
2023-01-28T20:26:16.181Z,0.30
2023-01-28T20:31:19.677Z,0.40
2023-01-28T20:36:21.717Z,0.40
2023-01-28T20:41:29.317Z,0.50
2023-01-28T20:46:34.415Z,0.30
2023-01-28T20:51:39.525Z,0.40
2023-01-28T20:56:41.319Z,0.50
2023-01-28T21:01:46.328Z,0.40
2023-01-28T21:06:48.224Z,0.30
2023-01-28T21:11:50.005Z,0.30
2023-01-28T21:16:53.232Z,0.20
2023-01-28T21:21:57.600Z,0.20
2023-01-28T21:27:00.905Z,0.00
2023-01-28T21:32:02.942Z,0.10
2023-01-28T21:37:04.770Z,0.10
2023-01-28T21:42:08.848Z,0.10
2023-01-28T21:47:10.650Z,0.00
2023-01-28T21:52:13.823Z,0.10
2023-01-28T21:57:15.608Z,0.00
2023-01-28T22:02:17.536Z,-0.20
2023-01-28T22:07:22.436Z,-0.10
2023-01-28T22:12:24.314Z,-0.20
2023-01-28T22:17:26.320Z,-0.20
2023-01-28T22:22:28.101Z,-0.10
2023-01-28T22:27:29.890Z,-0.10
2023-01-28T22:32:31.679Z,-0.20
2023-01-28T22:37:33.713Z,-0.30
2023-01-28T22:42:35.485Z,-0.10
2023-01-28T22:47:37.616Z,-0.30
2023-01-28T22:52:39.390Z,-0.40
2023-01-28T22:57:41.269Z,-0.30
2023-01-28T23:02:44.174Z,-0.40
2023-01-28T23:07:45.980Z,-0.60
2023-01-28T23:12:53.351Z,-0.50
2023-01-28T23:18:13.749Z,-0.50
2023-01-28T23:23:35.651Z,-0.50
2023-01-28T23:28:37.453Z,-0.60
2023-01-28T23:33:39.235Z,-0.70
2023-01-28T23:38:41.036Z,-0.60
2023-01-28T23:43:42.896Z,-0.60
2023-01-28T23:48:44.832Z,-0.70
2023-01-28T23:53:48.487Z,-0.70
2023-01-28T23:58:50.838Z,-0.60
